Strona główna
METAR-TAF:

METAR-TAF

Lotnisko :

Port lotniczy Ubon Ratchathani

Ubon Ratchathani, Tajlandia

Szerokość geograficzna: 15-15N, Długość geograficzna: 104-52E, wysokość: 123 m

Aktualna obserwacja pogody

Raport powstał 1 godzina i 8 minut temu, godzina 20:00 UTC
Wiatr 4 kt od północno-północny wschód
Temperatura 25°C
Wilgotność 79%
Ciśnienie 1011 hPa
Widzialność 10 km lub więcej
Brak chmur poniżej 1500 m i brak chmur cumulonimbus

METAR: VTUU 102000Z 02004KT CAVOK 25/21 Q1011 NOSIG

czas: 04:08 (21:08 UTC)

Prognoza

Raport powstał 4 godziny i 8 minut temu, godzina 17:00 UTC
Prognoza ważna od 10 godzina 18 UTC do 11 godzina 18 UTC
Wiatr 5 kt od wschodnio-północny wschód
Widzialność: 9000 m
Mało chmury na wysokości 3000 ft

TAF: VTUU 101700Z 1018/1118 06005KT 9000 FEW030

Obserwacja i prognoza pogody dla ponad 4000 lotnisk (raport METAR i TAF).

Dostępne stacje oznaczono żółtymi i czerwonymi punktami na mapie.

Najedź kursorem aby zobaczyć nazwę stacji.

Kliknij aby zobaczyć obserwacje i prognozy pogody.

Aby zmienić mapę: kliknij na zielony przycisk z czarnym krzyżykiem, aby powiększyć; na zielony przycisk z myślnikiem, aby pomniejszyć; na zielone strzałki, aby przejść do map sąsiednich.


METAR-TAF: